Time;durP1;ratioP1;P1;durP2;ratioP2;P2;SDS_P1;SDS_P2;PMS_P1;PMS_P2;Temp;Humidity;BMP_temperature;BMP_pressure;BME280_temperature;BME280_humidity;BME280_pressure;Samples;Min_cycle;Max_cycle;Signal;HPM_P1;HPM_P2
2022/01/05 00:00:28;;;;;;;5.97;0.90;;;16.10;48.60;15.30;99447.00;;;;5023593;28;20522;-67
2022/01/05 00:03:15;;;;;;;3.90;1.00;;;16.10;48.50;15.30;99440.00;;;;5011773;28;20073;-67
2022/01/05 00:06:01;;;;;;;4.10;1.27;;;16.10;48.50;15.30;99433.00;;;;5017979;28;20525;-67
2022/01/05 00:08:47;;;;;;;3.40;1.00;;;16.10;48.40;15.30;99443.00;;;;5009216;28;20060;-67
2022/01/05 00:11:35;;;;;;;4.93;1.10;;;16.10;48.40;15.30;99437.00;;;;5021195;28;20079;-67
2022/01/05 00:14:21;;;;;;;4.57;0.90;;;16.10;48.40;15.30;99437.00;;;;5001133;28;20128;-67
2022/01/05 00:17:07;;;;;;;4.47;1.38;;;16.10;48.30;15.30;99438.00;;;;5006523;28;20041;-67
2022/01/05 00:19:53;;;;;;;4.30;1.25;;;16.10;48.30;15.30;99441.00;;;;5019950;28;20053;-67
2022/01/05 00:22:40;;;;;;;3.97;1.05;;;16.10;48.20;15.30;99448.00;;;;5013813;28;20044;-67
2022/01/05 00:25:26;;;;;;;3.75;0.90;;;16.10;48.20;15.30;99441.00;;;;5019354;28;20549;-67
2022/01/05 00:28:12;;;;;;;3.92;1.15;;;16.10;48.90;15.30;99439.00;;;;5009975;28;20443;-67
2022/01/05 00:30:59;;;;;;;5.65;2.00;;;16.00;48.20;15.30;99437.00;;;;5001910;28;20455;-67
2022/01/05 00:33:45;;;;;;;4.78;0.93;;;16.00;48.10;15.30;99430.00;;;;5016344;28;20048;-67
2022/01/05 00:36:31;;;;;;;1.95;0.80;;;16.00;48.00;15.30;99435.00;;;;5021152;28;20545;-67
2022/01/05 00:39:17;;;;;;;5.40;1.10;;;16.00;48.00;15.30;99425.00;;;;5022022;28;20041;-67
2022/01/05 00:42:04;;;;;;;6.70;1.20;;;16.00;47.90;15.30;99427.00;;;;5008240;28;20176;-67
2022/01/05 00:44:50;;;;;;;2.50;0.98;;;16.00;47.90;15.20;99442.00;;;;5020472;28;20709;-67
2022/01/05 00:47:37;;;;;;;3.67;0.90;;;16.00;47.90;15.20;99434.00;;;;5024591;28;20537;-67
2022/01/05 00:50:23;;;;;;;4.38;0.90;;;16.00;47.80;15.20;99429.00;;;;5023563;28;20133;-67
2022/01/05 00:53:09;;;;;;;3.58;0.77;;;16.00;47.80;15.20;99427.00;;;;5005125;28;20139;-68
2022/01/05 00:55:55;;;;;;;3.42;0.80;;;16.00;47.70;15.20;99433.00;;;;5025315;28;20052;-67
2022/01/05 00:58:41;;;;;;;2.65;0.57;;;16.00;47.70;15.20;99436.00;;;;5001722;28;20041;-67
2022/01/05 01:01:28;;;;;;;3.03;0.70;;;16.00;47.60;15.20;99436.00;;;;5020190;28;20041;-67
2022/01/05 01:04:14;;;;;;;3.05;1.15;;;16.00;47.60;15.20;99433.00;;;;5021348;28;20184;-67
2022/01/05 01:07:00;;;;;;;4.18;1.13;;;16.00;47.60;15.20;99437.00;;;;5026944;28;20410;-67
2022/01/05 01:09:46;;;;;;;3.92;1.10;;;15.90;47.50;15.20;99430.00;;;;5012259;28;20466;-67
2022/01/05 01:12:34;;;;;;;2.92;1.27;;;15.90;47.60;15.20;99447.00;;;;5023080;28;20041;-67
2022/01/05 01:15:20;;;;;;;4.78;0.85;;;15.90;47.50;15.20;99454.00;;;;5009844;28;20077;-67
2022/01/05 01:18:06;;;;;;;3.58;0.73;;;15.90;47.50;15.20;99450.00;;;;5014755;28;20113;-67
2022/01/05 01:20:53;;;;;;;3.30;0.85;;;15.90;47.40;15.20;99448.00;;;;5011630;28;20049;-67
2022/01/05 01:23:42;;;;;;;4.32;0.80;;;15.90;47.30;15.20;99453.00;;;;5005368;28;20033;-67
2022/01/05 01:26:30;;;;;;;3.90;1.00;;;15.90;47.30;15.10;99444.00;;;;5020192;28;20052;-67
2022/01/05 01:29:16;;;;;;;5.00;0.95;;;15.90;47.40;15.10;99444.00;;;;4994637;28;20098;-67
2022/01/05 01:32:04;;;;;;;2.42;1.00;;;15.90;47.40;15.10;99451.00;;;;5004050;28;20063;-67
2022/01/05 01:34:50;;;;;;;4.07;0.85;;;15.90;47.30;15.10;99459.00;;;;5016439;28;20454;-68
2022/01/05 01:37:37;;;;;;;4.03;0.90;;;15.80;47.20;15.10;99453.00;;;;5021612;28;20607;-68
2022/01/05 01:40:23;;;;;;;4.70;1.15;;;15.90;47.30;15.10;99465.00;;;;5021164;28;20038;-67
2022/01/05 01:43:09;;;;;;;3.05;0.70;;;15.80;47.10;15.10;99465.00;;;;5001699;28;20037;-67
2022/01/05 01:45:55;;;;;;;4.28;1.10;;;15.80;47.10;15.10;99460.00;;;;5021893;28;20041;-67
2022/01/05 01:48:41;;;;;;;2.15;0.65;;;15.80;47.10;15.10;99460.00;;;;5011296;28;20531;-67
2022/01/05 01:51:28;;;;;;;4.13;1.15;;;15.80;46.90;15.00;99464.00;;;;5019845;28;20060;-67
2022/01/05 01:54:14;;;;;;;4.22;1.08;;;15.80;47.00;15.00;99471.00;;;;5020584;28;20399;-67
2022/01/05 01:57:00;;;;;;;6.30;1.00;;;15.80;47.00;15.00;99465.00;;;;5004333;28;20049;-67
2022/01/05 01:59:47;;;;;;;3.65;0.80;;;15.80;47.00;15.00;99467.00;;;;4995200;28;20119;-67
2022/01/05 02:02:33;;;;;;;3.37;0.90;;;15.80;47.00;15.00;99468.00;;;;5005396;28;20069;-67
2022/01/05 02:05:19;;;;;;;3.80;1.05;;;15.70;46.80;15.00;99466.00;;;;5003548;28;20283;-67
2022/01/05 02:08:06;;;;;;;5.03;1.10;;;15.70;46.90;15.00;99474.00;;;;5017233;28;20041;-67
2022/01/05 02:10:52;;;;;;;4.70;1.40;;;15.70;46.90;15.00;99474.00;;;;5002934;28;20049;-67
2022/01/05 02:13:38;;;;;;;4.05;0.77;;;15.70;46.90;15.00;99473.00;;;;5000103;28;20040;-67
2022/01/05 02:16:31;;;;;;;4.05;1.02;;;15.70;46.90;15.00;99471.00;;;;5021909;28;20475;-67
2022/01/05 02:19:18;;;;;;;2.13;1.10;;;15.70;46.90;15.00;99468.00;;;;5005696;28;20549;-67
2022/01/05 02:22:04;;;;;;;5.65;0.98;;;15.70;46.80;15.00;99462.00;;;;5023077;28;20049;-67
2022/01/05 02:24:50;;;;;;;3.65;0.85;;;15.70;46.80;15.00;99457.00;;;;5021675;28;20430;-67
2022/01/05 02:27:42;;;;;;;2.53;0.80;;;15.70;46.70;15.00;99467.00;;;;5021211;28;20613;-67
2022/01/05 02:30:29;;;;;;;3.50;1.00;;;15.70;46.70;14.90;99453.00;;;;4999720;28;20144;-67
2022/01/05 02:33:15;;;;;;;5.03;1.10;;;15.70;46.60;14.90;99452.00;;;;5020487;28;20048;-67
2022/01/05 02:36:03;;;;;;;4.55;1.05;;;15.70;46.50;14.90;99453.00;;;;5012589;28;20041;-67
2022/01/05 02:38:51;;;;;;;4.97;0.90;;;15.60;46.60;14.90;99451.00;;;;5006568;28;20045;-67
2022/01/05 02:41:37;;;;;;;4.97;1.15;;;15.60;46.60;14.90;99460.00;;;;5000362;28;20752;-67
2022/01/05 02:44:23;;;;;;;4.25;1.13;;;15.60;46.60;14.90;99458.00;;;;5003562;28;20057;-67
2022/01/05 02:47:09;;;;;;;5.20;1.08;;;15.60;46.40;14.90;99461.00;;;;5021972;28;20180;-67
2022/01/05 02:49:59;;;;;;;3.78;1.15;;;15.60;46.40;14.90;99469.00;;;;5017139;28;20132;-67
2022/01/05 02:52:46;;;;;;;8.60;2.05;;;15.60;46.40;14.90;99468.00;;;;5016599;28;20100;-67
2022/01/05 02:55:32;;;;;;;4.38;0.90;;;15.60;46.50;14.80;99467.00;;;;5020964;28;20053;-67
2022/01/05 02:58:18;;;;;;;5.22;0.90;;;15.60;46.60;14.80;99457.00;;;;5007738;28;20133;-67
2022/01/05 03:01:05;;;;;;;3.38;1.02;;;15.50;46.40;14.80;99469.00;;;;5008525;28;20041;-67
2022/01/05 03:03:51;;;;;;;4.32;0.90;;;15.50;46.40;14.80;99468.00;;;;4987861;28;23832;-67
2022/01/05 03:06:37;;;;;;;3.65;0.90;;;15.50;46.50;14.80;99475.00;;;;5020806;28;20073;-67
2022/01/05 03:09:23;;;;;;;3.70;0.85;;;15.50;46.40;14.80;99480.00;;;;5026399;28;20073;-67
2022/01/05 03:12:11;;;;;;;3.80;0.90;;;15.50;46.30;14.80;99475.00;;;;5027010;28;20048;-67
2022/01/05 03:14:57;;;;;;;5.55;0.95;;;15.50;46.20;14.80;99474.00;;;;5021212;28;20049;-67
2022/01/05 03:17:43;;;;;;;4.30;1.42;;;15.50;46.10;14.80;99473.00;;;;5025428;28;20045;-68
2022/01/05 03:20:30;;;;;;;4.88;0.95;;;15.50;46.10;14.80;99471.00;;;;4992666;28;20041;-67
2022/01/05 03:23:17;;;;;;;3.97;1.07;;;15.50;46.00;14.80;99468.00;;;;5024492;28;20041;-67
2022/01/05 03:26:03;;;;;;;6.10;1.10;;;15.50;46.00;14.80;99484.00;;;;5023890;28;20302;-67
2022/01/05 03:28:49;;;;;;;4.88;0.90;;;15.50;46.00;14.70;99482.00;;;;5014234;28;20045;-67
2022/01/05 03:31:35;;;;;;;5.55;0.95;;;15.50;45.80;14.70;99486.00;;;;5020736;28;20057;-67
2022/01/05 03:34:21;;;;;;;4.15;1.02;;;15.50;46.60;14.70;99484.00;;;;5006788;28;20110;-67
2022/01/05 03:37:07;;;;;;;4.88;1.30;;;15.50;45.70;14.70;99481.00;;;;5007928;28;20497;-67
2022/01/05 03:39:54;;;;;;;5.60;1.00;;;15.50;45.70;14.70;99489.00;;;;5017380;28;20037;-67
2022/01/05 03:42:40;;;;;;;4.28;1.20;;;15.40;45.60;14.70;99481.00;;;;5017756;28;20041;-67
2022/01/05 03:45:26;;;;;;;4.03;0.77;;;15.40;45.50;14.70;99485.00;;;;5024046;28;20072;-67
2022/01/05 03:48:14;;;;;;;7.13;0.90;;;15.40;45.50;14.70;99504.00;;;;5022138;28;20376;-67
2022/01/05 03:51:00;;;;;;;;;;;15.40;45.50;14.70;99503.00;;;;5026739;28;20087;-67
2022/01/05 03:53:46;;;;;;;4.13;1.00;;;15.40;46.10;14.60;99503.00;;;;5001060;28;20357;-67
2022/01/05 03:56:33;;;;;;;8.65;1.13;;;15.40;45.60;14.60;99501.00;;;;5022517;28;20064;-67
2022/01/05 03:59:19;;;;;;;4.50;1.35;;;15.40;45.20;14.60;99506.00;;;;5022436;28;20479;-67
2022/01/05 04:02:05;;;;;;;4.30;0.88;;;15.30;45.20;14.60;99503.00;;;;5017289;28;20041;-67
2022/01/05 04:04:51;;;;;;;3.75;0.80;;;15.30;45.30;14.60;99500.00;;;;5007353;28;20487;-67
2022/01/05 04:07:38;;;;;;;7.65;1.40;;;15.30;45.40;14.60;99513.00;;;;5020326;28;20115;-67
2022/01/05 04:10:24;;;;;;;4.22;1.10;;;15.30;45.40;14.60;99506.00;;;;5002241;28;20095;-67
2022/01/05 04:13:10;;;;;;;4.82;0.93;;;15.10;45.20;14.60;99515.00;;;;5018227;28;20525;-67
2022/01/05 04:15:57;;;;;;;4.03;0.90;;;15.30;45.40;14.60;99516.00;;;;5007629;28;20476;-68
2022/01/05 04:18:43;;;;;;;2.70;0.90;;;15.30;45.20;14.60;99517.00;;;;5005240;28;20152;-67
2022/01/05 04:21:29;;;;;;;4.03;1.30;;;15.20;45.10;14.50;99515.00;;;;5022538;28;20041;-67
2022/01/05 04:24:15;;;;;;;3.45;0.95;;;15.20;45.20;14.50;99521.00;;;;5019907;28;20048;-67
2022/01/05 04:27:01;;;;;;;3.50;0.90;;;15.20;44.80;14.50;99523.00;;;;5010119;28;20041;-67
2022/01/05 04:29:48;;;;;;;4.10;0.88;;;15.20;44.90;14.50;99525.00;;;;5018416;28;20495;-67
2022/01/05 04:32:34;;;;;;;5.88;1.33;;;15.20;45.10;14.50;99525.00;;;;5021319;28;20052;-67
2022/01/05 04:35:20;;;;;;;5.40;1.00;;;15.20;44.50;14.50;99515.00;;;;5017085;28;20117;-67
2022/01/05 04:38:06;;;;;;;5.18;1.13;;;15.20;44.70;14.50;99523.00;;;;5014478;28;20436;-67
2022/01/05 04:40:54;;;;;;;4.43;1.08;;;15.20;44.80;14.50;99525.00;;;;5017164;28;20550;-67
2022/01/05 04:43:40;;;;;;;7.47;1.20;;;15.20;44.60;14.50;99528.00;;;;5021471;28;20034;-67
2022/01/05 04:46:26;;;;;;;5.55;1.45;;;15.20;44.40;14.40;99519.00;;;;5026035;28;20041;-67
2022/01/05 04:49:13;;;;;;;4.90;1.63;;;15.20;44.20;14.40;99519.00;;;;5007850;28;20969;-67
2022/01/05 04:51:59;;;;;;;4.90;1.38;;;15.10;44.40;14.40;99518.00;;;;5001912;28;20049;-67
2022/01/05 04:54:46;;;;;;;6.75;1.02;;;15.10;44.20;14.40;99523.00;;;;5018090;28;20063;-67
2022/01/05 04:57:32;;;;;;;5.05;1.20;;;15.10;44.20;14.40;99519.00;;;;5018784;28;20033;-67
2022/01/05 05:00:19;;;;;;;7.18;1.30;;;15.10;44.30;14.40;99519.00;;;;5001052;28;22028;-67
2022/01/05 05:03:06;;;;;;;7.60;1.40;;;15.10;44.40;14.40;99520.00;;;;4988460;28;20305;-67
2022/01/05 05:05:52;;;;;;;6.95;1.40;;;15.10;44.50;14.40;99523.00;;;;4984384;28;20403;-67
2022/01/05 05:08:38;;;;;;;4.25;1.13;;;15.10;44.70;14.40;99520.00;;;;5000928;28;20041;-67
2022/01/05 05:11:24;;;;;;;7.53;1.27;;;15.10;44.50;14.40;99513.00;;;;5000658;28;20069;-67
2022/01/05 05:14:10;;;;;;;8.80;1.80;;;15.10;44.20;14.40;99526.00;;;;4985556;28;20049;-67
2022/01/05 05:16:57;;;;;;;4.65;1.30;;;15.10;44.50;14.40;99510.00;;;;4969033;28;20098;-67
2022/01/05 05:19:43;;;;;;;5.10;1.58;;;15.10;44.60;14.40;99512.00;;;;5003307;28;20041;-67
2022/01/05 05:22:29;;;;;;;5.82;1.52;;;15.10;44.40;14.40;99514.00;;;;4983048;28;20035;-67
2022/01/05 05:25:15;;;;;;;4.22;1.83;;;15.10;44.20;14.40;99507.00;;;;4986688;28;20485;-67
2022/01/05 05:28:01;;;;;;;6.88;1.25;;;15.10;44.20;14.30;99508.00;;;;5000422;28;20065;-67
2022/01/05 05:30:48;;;;;;;4.90;1.05;;;15.00;44.30;14.30;99509.00;;;;4996207;28;20099;-67
2022/01/05 05:33:34;;;;;;;7.50;1.20;;;15.00;44.20;14.30;99516.00;;;;4987130;28;20052;-67
2022/01/05 05:36:20;;;;;;;6.60;1.67;;;15.00;44.10;14.30;99523.00;;;;4999379;28;20042;-67
2022/01/05 05:39:06;;;;;;;4.15;1.15;;;15.00;44.10;14.30;99526.00;;;;4998644;28;20665;-67
2022/01/05 05:41:52;;;;;;;7.65;2.08;;;15.00;44.10;14.30;99518.00;;;;4979068;28;20042;-67
2022/01/05 05:44:39;;;;;;;4.25;1.30;;;15.00;44.30;14.30;99528.00;;;;5004854;28;20044;-67
2022/01/05 05:47:25;;;;;;;9.38;1.52;;;15.00;44.50;14.30;99531.00;;;;4997089;28;20100;-67
2022/01/05 05:50:11;;;;;;;5.78;1.50;;;15.00;44.10;14.30;99529.00;;;;4988591;28;20041;-67
2022/01/05 05:52:57;;;;;;;5.93;1.83;;;15.00;44.30;14.30;99534.00;;;;5002139;28;20242;-67
2022/01/05 05:55:43;;;;;;;6.45;1.52;;;15.00;44.00;14.30;99526.00;;;;4981294;28;20442;-67
2022/01/05 05:58:30;;;;;;;4.68;1.30;;;15.00;44.40;14.30;99532.00;;;;5008330;28;20068;-67
2022/01/05 06:01:16;;;;;;;8.32;1.50;;;15.00;44.10;14.30;99532.00;;;;5016091;28;20045;-67
2022/01/05 06:04:02;;;;;;;6.93;2.00;;;15.00;44.20;14.30;99526.00;;;;5003559;28;20486;-67
2022/01/05 06:06:48;;;;;;;4.57;1.38;;;15.00;44.50;14.30;99530.00;;;;5015892;28;20403;-67
2022/01/05 06:09:34;;;;;;;7.32;1.40;;;15.00;44.10;14.30;99518.00;;;;4995070;28;20034;-67
2022/01/05 06:12:20;;;;;;;5.00;1.33;;;15.00;44.40;14.30;99524.00;;;;5017647;28;20466;-67
2022/01/05 06:15:07;;;;;;;6.88;1.58;;;15.00;44.50;14.30;99523.00;;;;5015835;28;20049;-67
2022/01/05 06:17:54;;;;;;;5.85;1.30;;;15.00;44.40;14.30;99530.00;;;;5017661;28;20045;-67
2022/01/05 06:20:40;;;;;;;9.60;1.55;;;15.00;44.30;14.30;99532.00;;;;5018736;28;20037;-67
2022/01/05 06:23:26;;;;;;;7.03;1.75;;;15.00;44.10;14.30;99536.00;;;;5016394;28;20057;-67
2022/01/05 06:26:12;;;;;;;6.53;1.42;;;15.00;44.40;14.30;99543.00;;;;5000787;28;20037;-67
2022/01/05 06:28:59;;;;;;;6.03;1.25;;;15.00;44.10;14.30;99524.00;;;;5021633;28;20046;-67
2022/01/05 06:31:45;;;;;;;6.82;1.50;;;15.00;44.40;14.30;99535.00;;;;5026142;28;20132;-67
2022/01/05 06:34:31;;;;;;;5.90;1.70;;;15.00;44.40;14.30;99536.00;;;;5023030;28;20060;-67
2022/01/05 06:37:18;;;;;;;7.75;1.58;;;15.00;44.40;14.20;99540.00;;;;5019094;28;20042;-67
2022/01/05 06:40:13;;;;;;;5.28;1.80;;;15.00;44.60;14.30;99539.00;;;;5019784;28;20546;-67
2022/01/05 06:43:01;;;;;;;6.55;1.33;;;15.00;44.20;14.20;99544.00;;;;5004910;28;20166;-67
2022/01/05 06:45:47;;;;;;;9.95;1.67;;;15.00;44.40;14.20;99547.00;;;;5009283;28;20199;-67
2022/01/05 06:48:33;;;;;;;7.43;1.50;;;15.00;44.40;14.20;99552.00;;;;5019257;28;20464;-67
2022/01/05 06:51:19;;;;;;;8.73;1.60;;;15.00;44.40;14.20;99562.00;;;;5023841;28;20049;-67
2022/01/05 06:54:05;;;;;;;7.22;1.33;;;15.00;44.30;14.30;99551.00;;;;5017974;28;20064;-67
2022/01/05 06:56:52;;;;;;;4.53;1.33;;;15.00;44.30;14.20;99569.00;;;;5009406;28;20139;-67
2022/01/05 06:59:39;;;;;;;7.47;1.90;;;15.00;44.50;14.20;99556.00;;;;5024654;28;20052;-67
2022/01/05 07:02:25;;;;;;;5.57;1.55;;;15.00;44.50;14.20;99557.00;;;;5012456;28;20514;-67
2022/01/05 07:05:11;;;;;;;4.63;1.27;;;14.90;44.40;14.20;99555.00;;;;5023838;28;20560;-67
2022/01/05 07:07:58;;;;;;;7.32;2.15;;;15.00;44.50;14.20;99553.00;;;;5021917;28;20463;-67
2022/01/05 07:10:45;;;;;;;6.40;1.65;;;15.00;44.50;14.20;99555.00;;;;5023444;28;20038;-67
2022/01/05 07:13:31;;;;;;;5.60;1.67;;;15.00;44.40;14.20;99550.00;;;;4998355;28;20038;-67
2022/01/05 07:16:17;;;;;;;7.32;1.63;;;15.00;44.30;14.20;99568.00;;;;5003082;28;20076;-67
2022/01/05 07:19:03;;;;;;;6.28;1.60;;;15.00;44.20;14.20;99570.00;;;;5019622;28;20111;-67
2022/01/05 07:21:49;;;;;;;8.63;2.35;;;14.90;44.30;14.20;99569.00;;;;5025371;28;20041;-67
2022/01/05 07:24:35;;;;;;;3.95;1.40;;;14.90;44.00;14.20;99579.00;;;;5019433;28;20073;-67
2022/01/05 07:27:23;;;;;;;9.02;1.75;;;14.90;43.90;14.20;99580.00;;;;5006991;28;20041;-67
2022/01/05 07:30:10;;;;;;;4.87;1.43;;;14.90;44.00;14.20;99553.00;;;;5018628;28;20554;-67
2022/01/05 07:32:56;;;;;;;9.55;1.55;;;14.90;44.00;14.20;99557.00;;;;5009645;28;20487;-67
2022/01/05 07:35:42;;;;;;;7.32;1.52;;;14.90;44.20;14.20;99545.00;;;;5012254;28;20207;-67
2022/01/05 07:38:29;;;;;;;12.50;1.88;;;14.90;44.10;14.20;99567.00;;;;5010603;28;20037;-67
2022/01/05 07:41:15;;;;;;;9.38;2.10;;;14.90;44.30;14.10;99568.00;;;;5020806;28;20161;-67
2022/01/05 07:44:02;;;;;;;6.80;1.40;;;14.90;44.40;14.10;99581.00;;;;5006856;28;20041;-67
2022/01/05 07:46:48;;;;;;;9.75;1.70;;;14.80;44.20;14.10;99592.00;;;;4995520;28;20048;-67
2022/01/05 07:49:34;;;;;;;4.35;1.27;;;14.80;44.40;14.10;99580.00;;;;5017701;28;20143;-67
2022/01/05 07:52:20;;;;;;;9.07;1.38;;;14.80;44.50;14.10;99597.00;;;;5012569;28;20038;-67
2022/01/05 07:55:07;;;;;;;8.18;1.50;;;14.80;44.20;14.10;99581.00;;;;5019461;28;20051;-67
2022/01/05 07:57:54;;;;;;;4.70;1.43;;;14.80;44.10;14.10;99578.00;;;;5011829;28;20425;-67
2022/01/05 08:00:40;;;;;;;6.63;1.65;;;14.80;44.30;14.10;99576.00;;;;5021064;28;20048;-67
2022/01/05 08:03:26;;;;;;;11.27;2.47;;;14.80;44.30;14.10;99582.00;;;;5020758;28;21693;-67
2022/01/05 08:06:13;;;;;;;8.80;1.73;;;14.80;44.30;14.10;99573.00;;;;5024494;28;20570;-68
2022/01/05 08:09:00;;;;;;;7.03;1.55;;;14.80;44.40;14.00;99581.00;;;;5018401;28;20139;-67
2022/01/05 08:11:54;;;;;;;4.68;1.52;;;14.80;44.70;14.00;99580.00;;;;4998974;28;20048;-67
2022/01/05 08:14:40;;;;;;;8.80;1.38;;;14.80;44.50;14.00;99576.00;;;;5021086;28;20759;-67
2022/01/05 08:17:26;;;;;;;5.90;1.67;;;14.80;44.70;14.00;99569.00;;;;5017807;28;20037;-67
2022/01/05 08:20:13;;;;;;;5.80;1.42;;;14.70;44.70;14.00;99556.00;;;;5022531;28;20033;-67
2022/01/05 08:23:05;;;;;;;4.93;1.30;;;14.70;45.00;14.00;99566.00;;;;4998672;28;20038;-67
2022/01/05 08:25:52;;;;;;;6.97;1.80;;;14.70;44.90;14.00;99557.00;;;;5017895;28;20537;-67
2022/01/05 08:28:38;;;;;;;7.57;1.42;;;14.70;45.20;14.00;99550.00;;;;5005953;28;20048;-67
2022/01/05 08:31:24;;;;;;;6.32;1.63;;;14.70;45.30;14.00;99551.00;;;;5025426;28;20099;-67
2022/01/05 08:34:11;;;;;;;5.30;2.28;;;14.70;45.20;13.90;99538.00;;;;5012761;28;20471;-67
2022/01/05 08:36:58;;;;;;;4.07;1.45;;;14.60;45.30;13.90;99536.00;;;;5000268;28;20037;-67
2022/01/05 08:39:45;;;;;;;5.50;1.58;;;14.60;45.40;13.90;99545.00;;;;5002706;28;20399;-67
2022/01/05 08:42:32;;;;;;;7.35;1.50;;;14.60;45.40;13.90;99531.00;;;;4997113;28;20075;-67
2022/01/05 08:45:19;;;;;;;5.50;1.63;;;14.60;45.60;13.90;99530.00;;;;5023404;28;20060;-67
2022/01/05 08:48:05;;;;;;;6.45;1.73;;;14.60;45.60;13.90;99530.00;;;;5003803;28;20030;-67
2022/01/05 08:50:52;;;;;;;7.45;1.73;;;14.60;45.70;13.90;99524.00;;;;5002589;28;20353;-67
2022/01/05 08:53:38;;;;;;;8.35;1.67;;;14.70;45.70;13.90;99528.00;;;;5007058;28;20476;-67
2022/01/05 08:56:25;;;;;;;6.32;1.58;;;14.60;45.70;13.90;99541.00;;;;5024459;28;20136;-67
2022/01/05 08:59:11;;;;;;;9.23;2.00;;;14.60;45.70;13.90;99541.00;;;;5019595;28;20445;-67
2022/01/05 09:02:04;;;;;;;6.22;1.80;;;14.60;45.90;13.90;99547.00;;;;5022651;28;20037;-67
2022/01/05 09:04:52;;;;;;;4.85;1.33;;;14.60;45.90;13.90;99555.00;;;;4978118;28;20387;-67
2022/01/05 09:07:38;;;;;;;6.07;1.83;;;14.60;46.00;13.90;99547.00;;;;5016662;28;20061;-67
2022/01/05 09:10:24;;;;;;;4.57;1.30;;;14.60;46.00;13.90;99539.00;;;;5019619;28;20134;-67
2022/01/05 09:13:12;;;;;;;11.75;1.77;;;14.60;46.00;13.90;99537.00;;;;5012496;28;20073;-67
2022/01/05 09:15:58;;;;;;;7.38;2.10;;;14.60;46.00;13.90;99544.00;;;;4984425;28;20044;-67
2022/01/05 09:18:44;;;;;;;5.15;1.38;;;14.60;46.00;13.90;99546.00;;;;5016793;28;20938;-67
2022/01/05 09:21:30;;;;;;;7.95;1.52;;;14.60;46.10;13.90;99530.00;;;;4989853;28;20077;-67
2022/01/05 09:24:17;;;;;;;5.20;1.52;;;14.60;46.10;13.80;99543.00;;;;5005807;28;20030;-67
2022/01/05 09:27:06;;;;;;;4.78;1.50;;;14.60;46.20;13.80;99545.00;;;;5016407;28;20168;-67
2022/01/05 09:29:52;;;;;;;4.70;1.60;;;14.50;46.10;13.80;99551.00;;;;5011853;28;20051;-67
2022/01/05 09:32:39;;;;;;;6.40;1.30;;;14.50;46.20;13.80;99557.00;;;;5017728;28;20045;-68
2022/01/05 09:35:26;;;;;;;6.55;1.65;;;14.50;46.20;13.80;99550.00;;;;4987311;28;20284;-67
2022/01/05 09:44:44;;;;;;;5.45;1.50;;;14.50;46.40;13.70;99550.00;;;;4999308;28;20039;-67
2022/01/05 09:48:19;;;;;;;6.32;1.52;;;14.40;46.50;13.70;99565.00;;;;4992375;28;20167;-67
2022/01/05 09:51:12;;;;;;;5.07;1.33;;;14.40;46.50;13.70;99565.00;;;;5014847;28;20069;-67
2022/01/05 09:54:00;;;;;;;7.70;1.80;;;14.40;46.50;13.70;99557.00;;;;5007686;28;20053;-67
2022/01/05 09:56:46;;;;;;;7.63;1.70;;;14.40;46.60;13.70;99567.00;;;;5001178;28;20442;-67
2022/01/05 09:59:35;;;;;;;4.32;1.25;;;14.40;46.80;13.60;99581.00;;;;5005577;28;20073;-67
2022/01/05 10:02:21;;;;;;;;;;;14.40;46.80;13.60;99584.00;;;;4983843;28;20030;-67
2022/01/05 10:05:12;;;;;;;3.20;1.25;;;14.40;46.80;13.60;99590.00;;;;5013674;28;19979;-68
2022/01/05 10:07:58;;;;;;;4.35;1.40;;;14.40;46.60;13.60;99604.00;;;;5016985;28;20049;-67
2022/01/05 10:10:44;;;;;;;2.97;0.85;;;14.30;46.60;13.60;99597.00;;;;5018691;28;20045;-67
2022/01/05 10:13:30;;;;;;;2.95;1.05;;;14.30;46.70;13.60;99615.00;;;;5001902;28;20046;-67
2022/01/05 10:16:17;;;;;;;3.22;1.10;;;14.30;46.70;13.60;99623.00;;;;5012027;28;20091;-67
2022/01/05 10:19:03;;;;;;;4.03;1.05;;;14.30;46.80;13.60;99612.00;;;;5003028;28;20406;-67
2022/01/05 10:21:50;;;;;;;3.13;1.02;;;14.20;46.80;13.50;99612.00;;;;5022632;28;20045;-67
2022/01/05 10:24:46;;;;;;;2.45;0.93;;;14.20;46.80;13.60;99620.00;;;;4989428;28;20100;-67
2022/01/05 10:27:32;;;;;;;2.13;0.88;;;14.20;47.10;13.60;99635.00;;;;4991231;28;20042;-67
2022/01/05 10:30:19;;;;;;;1.88;0.70;;;14.20;47.00;13.60;99629.00;;;;5013413;28;20049;-68
2022/01/05 10:33:05;;;;;;;1.67;0.68;;;14.20;47.10;13.60;99632.00;;;;5017813;28;20633;-67
2022/01/05 10:35:58;;;;;;;1.45;0.70;;;14.20;47.20;13.60;99642.00;;;;4996289;28;20099;-67
2022/01/05 10:38:51;;;;;;;3.30;0.80;;;14.20;47.00;13.60;99629.00;;;;5020066;28;21713;-67
2022/01/05 10:41:38;;;;;;;3.92;0.98;;;14.20;47.20;13.60;99641.00;;;;4989681;28;20514;-67
2022/01/05 10:44:24;;;;;;;2.00;1.05;;;14.20;47.30;13.70;99658.00;;;;4991894;28;20447;-67
2022/01/05 10:47:16;;;;;;;1.05;0.55;;;14.30;47.20;13.70;99652.00;;;;5018386;28;20353;-67
2022/01/05 10:50:04;;;;;;;3.65;0.80;;;14.30;47.30;13.70;99648.00;;;;4999197;28;20073;-67
2022/01/05 10:52:55;;;;;;;2.78;0.68;;;14.30;47.20;13.70;99653.00;;;;5021874;28;20045;-67
2022/01/05 10:55:52;;;;;;;2.08;0.57;;;14.30;47.30;13.70;99657.00;;;;5016315;28;20601;-67
2022/01/05 10:58:46;;;;;;;1.65;0.63;;;14.40;47.40;13.70;99649.00;;;;5018282;28;20502;-67
2022/01/05 11:01:33;;;;;;;2.33;0.75;;;14.40;47.30;13.70;99660.00;;;;5002446;28;20045;-67
2022/01/05 11:04:21;;;;;;;1.90;0.60;;;14.40;47.40;13.80;99652.00;;;;5014091;28;20042;-67
2022/01/05 11:07:07;;;;;;;;;;;14.40;47.30;13.70;99649.00;;;;5017803;28;20042;-68
2022/01/05 11:10:05;;;;;;;1.13;0.60;;;14.50;47.40;13.80;99659.00;;;;5023029;28;19917;-67
2022/01/05 11:12:53;;;;;;;2.88;0.60;;;14.50;47.30;13.80;99660.00;;;;4998741;28;20052;-67
2022/01/05 11:15:39;;;;;;;2.53;0.63;;;14.50;47.30;13.80;99651.00;;;;5001068;28;20042;-67
2022/01/05 11:18:31;;;;;;;2.22;0.77;;;14.50;47.50;13.80;99653.00;;;;5021257;28;20033;-67
2022/01/05 11:21:19;;;;;;;2.13;0.70;;;14.50;47.50;13.80;99664.00;;;;5000950;28;20536;-67
2022/01/05 11:24:05;;;;;;;;;;;14.60;47.60;13.80;99655.00;;;;5021667;28;20049;-67
2022/01/05 11:26:52;;;;;;;4.05;0.85;;;14.50;47.60;13.80;99667.00;;;;4989054;28;20288;-67
2022/01/05 11:29:39;;;;;;;2.83;0.65;;;14.60;47.60;13.80;99661.00;;;;5003846;28;20398;-67
2022/01/05 11:32:27;;;;;;;4.27;0.93;;;14.60;47.60;13.80;99669.00;;;;5004396;28;20119;-67
2022/01/05 11:35:14;;;;;;;3.05;1.08;;;14.60;47.70;13.80;99671.00;;;;4999925;28;20037;-67
2022/01/05 11:38:01;;;;;;;3.13;0.90;;;14.60;47.80;13.80;99683.00;;;;5021663;28;20045;-67
2022/01/05 11:40:54;;;;;;;3.35;0.88;;;14.60;47.80;13.80;99679.00;;;;5006087;28;20055;-67
2022/01/05 11:43:40;;;;;;;2.53;0.70;;;14.60;48.00;13.80;99687.00;;;;4985184;28;20468;-67
2022/01/05 11:46:29;;;;;;;3.60;1.00;;;14.60;48.00;13.80;99696.00;;;;5001477;28;22507;-68
2022/01/05 11:49:24;;;;;;;3.25;0.80;;;14.60;48.10;13.80;99684.00;;;;5002026;28;20064;-67
2022/01/05 11:52:11;;;;;;;1.65;0.80;;;14.60;48.20;13.80;99688.00;;;;4990275;28;20053;-67
2022/01/05 11:55:06;;;;;;;1.63;0.60;;;14.60;48.20;13.80;99702.00;;;;5004420;28;20056;-67
2022/01/05 11:58:32;;;;;;;3.33;0.70;;;14.60;48.30;13.80;99707.00;;;;5005602;28;20407;-67
2022/01/05 12:01:20;;;;;;;2.17;0.65;;;14.60;48.30;13.80;99709.00;;;;4943496;28;20129;-67
2022/01/05 12:04:11;;;;;;;1.98;0.68;;;14.60;48.40;13.80;99713.00;;;;5023526;28;20038;-67
2022/01/05 12:07:00;;;;;;;3.30;0.70;;;14.60;48.40;13.80;99721.00;;;;4986974;28;20049;-67
2022/01/05 12:09:51;;;;;;;2.05;0.60;;;14.60;48.50;13.80;99721.00;;;;5021793;28;20045;-67
2022/01/05 12:12:37;;;;;;;2.42;0.57;;;14.60;48.60;13.80;99730.00;;;;5021955;28;20104;-67
2022/01/05 12:15:39;;;;;;;3.88;0.85;;;14.60;48.60;13.90;99732.00;;;;5016774;28;20064;-67
2022/01/05 12:18:30;;;;;;;4.35;1.00;;;14.60;48.70;13.90;99730.00;;;;5020849;28;20497;-67
2022/01/05 12:21:51;;;;;;;3.90;0.60;;;14.60;48.70;13.90;99741.00;;;;5016740;28;20041;-67
2022/01/05 12:25:00;;;;;;;3.40;0.60;;;14.60;48.80;13.90;99739.00;;;;5016088;28;20033;-67
2022/01/05 12:28:02;;;;;;;2.72;0.65;;;14.70;48.80;13.90;99734.00;;;;5019139;28;20041;-67
2022/01/05 12:30:48;;;;;;;3.42;1.00;;;14.70;48.90;13.90;99746.00;;;;4991776;28;20091;-67